createdAt,value
2022-12-17T00:00:28.104Z,-8.50
2022-12-17T00:03:19.975Z,-9.10
2022-12-17T00:06:05.491Z,-9.10
2022-12-17T00:08:50.919Z,-9.30
2022-12-17T00:11:37.582Z,-9.10
2022-12-17T00:14:23.055Z,-9.10
2022-12-17T00:17:11.399Z,-9.20
2022-12-17T00:19:56.729Z,-9.20
2022-12-17T00:22:42.144Z,-9.40
2022-12-17T00:25:27.468Z,-9.30
2022-12-17T00:28:12.747Z,-9.20
2022-12-17T00:30:58.073Z,-8.90
2022-12-17T00:33:43.496Z,-8.50
2022-12-17T00:36:28.905Z,-9.70
2022-12-17T00:39:14.238Z,-9.40
2022-12-17T00:41:59.762Z,-9.20
2022-12-17T00:44:45.259Z,-8.50
2022-12-17T00:47:30.716Z,-9.10
2022-12-17T00:50:16.001Z,-9.90
2022-12-17T00:53:04.523Z,-9.70
2022-12-17T00:55:50.057Z,-9.60
2022-12-17T00:58:35.443Z,-9.30
2022-12-17T01:01:21.033Z,-9.10
2022-12-17T01:04:06.465Z,-9.40
2022-12-17T01:06:52.980Z,-9.50
2022-12-17T01:09:38.589Z,-9.50
2022-12-17T01:12:23.947Z,-9.60
2022-12-17T01:15:09.003Z,-9.80
2022-12-17T01:17:54.152Z,-9.60
2022-12-17T01:23:27.758Z,-9.60
2022-12-17T01:26:15.440Z,-9.60
2022-12-17T01:29:01.407Z,-9.70
2022-12-17T01:31:46.533Z,-9.80
2022-12-17T01:34:31.652Z,-9.90
2022-12-17T01:37:16.824Z,-9.90
2022-12-17T01:40:01.801Z,-10.00
2022-12-17T01:42:59.037Z,-10.00
2022-12-17T01:45:46.875Z,-9.90
2022-12-17T01:48:54.612Z,-9.80
2022-12-17T01:51:40.166Z,-9.80
2022-12-17T01:54:25.684Z,-9.80
2022-12-17T01:57:11.170Z,-9.80
2022-12-17T02:00:17.274Z,-9.80
2022-12-17T02:03:03.092Z,-9.90
2022-12-17T02:05:55.081Z,-9.90
2022-12-17T02:09:11.396Z,-9.90
2022-12-17T02:12:29.904Z,-10.00
2022-12-17T02:15:20.997Z,-10.00
2022-12-17T02:18:13.707Z,-10.00
2022-12-17T02:21:04.735Z,-10.10
2022-12-17T02:24:08.237Z,-10.10
2022-12-17T02:27:02.599Z,-10.20
2022-12-17T02:29:52.857Z,-9.70
2022-12-17T02:32:39.100Z,-10.20
2022-12-17T02:35:31.772Z,-10.30
2022-12-17T02:38:16.732Z,-10.20
2022-12-17T02:41:03.735Z,-10.30
2022-12-17T02:43:51.022Z,-10.30
2022-12-17T02:46:37.534Z,-10.20
2022-12-17T02:49:22.944Z,-10.30
2022-12-17T02:52:09.025Z,-10.30
2022-12-17T02:54:54.073Z,-10.20
2022-12-17T02:57:43.643Z,-10.30
2022-12-17T03:00:29.951Z,-10.30
2022-12-17T03:03:15.044Z,-10.30
2022-12-17T03:06:00.115Z,-10.30
2022-12-17T03:08:45.133Z,-10.30
2022-12-17T03:11:30.342Z,-10.30
2022-12-17T03:14:15.474Z,-10.30
2022-12-17T03:17:00.690Z,-10.40
2022-12-17T03:19:46.044Z,-10.40
2022-12-17T03:22:31.168Z,-10.40
2022-12-17T03:25:16.332Z,-10.40
2022-12-17T03:28:01.422Z,-10.40
2022-12-17T03:30:49.199Z,-10.50
2022-12-17T03:33:39.321Z,-10.50
2022-12-17T03:36:24.924Z,-10.60
2022-12-17T03:39:10.055Z,-10.60
2022-12-17T03:41:55.249Z,-10.60
2022-12-17T03:44:40.253Z,-10.60
2022-12-17T03:47:25.833Z,-10.60
2022-12-17T03:50:10.848Z,-10.50
2022-12-17T03:52:56.053Z,-10.50
2022-12-17T03:55:41.019Z,-10.60
2022-12-17T03:58:26.015Z,-10.50
2022-12-17T04:01:11.889Z,-10.60
2022-12-17T04:03:57.121Z,-10.60
2022-12-17T04:06:42.241Z,-10.60
2022-12-17T04:09:27.838Z,-10.70
2022-12-17T04:12:13.070Z,-10.70
2022-12-17T04:14:58.271Z,-10.80
2022-12-17T04:17:43.351Z,-10.80
2022-12-17T04:20:28.917Z,-10.80
2022-12-17T04:23:13.934Z,-10.80
2022-12-17T04:25:58.950Z,-10.80
2022-12-17T04:28:44.014Z,-10.80
2022-12-17T04:31:29.242Z,-10.90
2022-12-17T04:34:14.720Z,-10.80
2022-12-17T04:36:59.641Z,-10.90
2022-12-17T04:39:44.886Z,-10.80
2022-12-17T04:42:29.896Z,-10.80
2022-12-17T04:45:14.905Z,-10.90
2022-12-17T04:47:59.897Z,-11.00
2022-12-17T04:50:45.104Z,-11.00
2022-12-17T04:53:30.188Z,-11.00
2022-12-17T04:56:15.229Z,-11.00
2022-12-17T04:59:00.348Z,-11.00
2022-12-17T05:01:45.523Z,-11.00
2022-12-17T05:04:30.950Z,-11.10
2022-12-17T05:07:16.036Z,-11.30
2022-12-17T05:10:01.215Z,-11.20
2022-12-17T05:12:46.522Z,-11.20
2022-12-17T05:15:31.704Z,-11.10
2022-12-17T05:18:24.386Z,-11.10
2022-12-17T05:21:09.460Z,-11.10
2022-12-17T05:23:54.972Z,-11.20
2022-12-17T05:26:42.582Z,-11.30
2022-12-17T05:32:14.019Z,-11.20
2022-12-17T05:34:58.955Z,-11.20
2022-12-17T05:37:44.458Z,-11.30
2022-12-17T05:40:30.124Z,-11.30
2022-12-17T05:43:16.267Z,-11.30
2022-12-17T05:46:03.234Z,-11.30
2022-12-17T05:48:49.406Z,-11.30
2022-12-17T05:51:38.611Z,-11.30
2022-12-17T05:54:25.052Z,-11.30
2022-12-17T05:57:10.578Z,-11.40
2022-12-17T05:59:56.226Z,-11.40
2022-12-17T06:02:42.134Z,-11.40
2022-12-17T06:05:27.548Z,-11.40
2022-12-17T06:08:20.417Z,-11.50
2022-12-17T06:11:05.400Z,-11.40
2022-12-17T06:13:50.380Z,-11.50
2022-12-17T06:16:35.563Z,-11.50
2022-12-17T06:19:20.674Z,-11.60
2022-12-17T06:22:05.736Z,-11.40
2022-12-17T06:24:50.691Z,-11.40
2022-12-17T06:30:23.623Z,-11.60
2022-12-17T06:33:08.589Z,-11.50
2022-12-17T06:35:53.729Z,-11.40
2022-12-17T06:38:38.618Z,-11.60
2022-12-17T06:41:24.299Z,-11.60
2022-12-17T06:44:26.918Z,-11.50
2022-12-17T06:47:12.379Z,-11.50
2022-12-17T06:50:01.205Z,-11.60
2022-12-17T06:55:32.726Z,-11.70
2022-12-17T06:58:18.811Z,-11.40
2022-12-17T07:05:07.106Z,-11.80
2022-12-17T07:11:47.180Z,-11.60
2022-12-17T07:19:12.163Z,-11.60
2022-12-17T07:32:31.030Z,-11.60
2022-12-17T07:38:32.411Z,-11.90
2022-12-17T07:45:05.957Z,-11.60
2022-12-17T07:47:54.599Z,-11.40
2022-12-17T07:53:39.770Z,-11.20
2022-12-17T07:56:52.036Z,-11.30
2022-12-17T07:59:45.115Z,-11.40
2022-12-17T08:02:34.340Z,-11.10
2022-12-17T08:09:56.317Z,-10.90
2022-12-17T08:16:17.050Z,-10.90
2022-12-17T08:19:02.859Z,-10.70
2022-12-17T08:21:47.855Z,-10.70
2022-12-17T08:24:32.896Z,-10.80
2022-12-17T08:30:04.098Z,-10.60
2022-12-17T08:32:49.106Z,-10.60
2022-12-17T08:35:34.588Z,-10.50
2022-12-17T08:38:21.771Z,-10.70
2022-12-17T08:41:07.249Z,-10.20
2022-12-17T08:43:52.293Z,-10.20
2022-12-17T08:46:37.950Z,-10.10
2022-12-17T08:49:23.047Z,-10.20
2022-12-17T08:52:08.211Z,-9.80
2022-12-17T08:54:53.550Z,-8.60
2022-12-17T08:57:38.770Z,-8.90
2022-12-17T09:00:24.913Z,-9.40
2022-12-17T09:03:18.310Z,-9.00
2022-12-17T09:06:04.052Z,-9.20
2022-12-17T09:09:09.944Z,-9.00
2022-12-17T09:11:55.049Z,-7.90
2022-12-17T09:14:40.516Z,-8.60
2022-12-17T09:17:26.021Z,-8.60
2022-12-17T09:20:11.314Z,-8.50
2022-12-17T09:22:56.789Z,-7.80
2022-12-17T09:25:42.481Z,-7.90
2022-12-17T09:28:27.994Z,-7.80
2022-12-17T09:31:18.141Z,-7.50
2022-12-17T09:34:04.686Z,-7.20
2022-12-17T09:36:51.386Z,-7.20
2022-12-17T09:39:36.920Z,-6.40
2022-12-17T09:42:50.014Z,-6.90
2022-12-17T09:45:51.381Z,-6.70
2022-12-17T09:48:56.895Z,-5.90
2022-12-17T09:51:45.071Z,-5.50
2022-12-17T09:54:41.349Z,-5.00
2022-12-17T09:57:32.211Z,-5.40
2022-12-17T10:00:17.283Z,-5.90
2022-12-17T10:03:02.907Z,-6.20
2022-12-17T10:05:50.937Z,-5.80
2022-12-17T10:08:39.229Z,-5.50
2022-12-17T10:11:40.054Z,-4.80
2022-12-17T10:14:42.139Z,-4.60
2022-12-17T10:17:37.599Z,-4.70
2022-12-17T10:20:35.859Z,-5.60
2022-12-17T10:23:21.102Z,-4.90
2022-12-17T10:26:11.756Z,-4.70
2022-12-17T10:28:57.233Z,-5.00
2022-12-17T10:31:47.475Z,-4.60
2022-12-17T10:34:36.637Z,-3.70
2022-12-17T10:37:23.262Z,-4.80
2022-12-17T10:40:18.206Z,-4.20
2022-12-17T10:43:04.457Z,-3.70
2022-12-17T10:45:52.697Z,-3.40
2022-12-17T10:48:43.480Z,-3.10
2022-12-17T10:51:40.346Z,-3.90
2022-12-17T10:54:39.961Z,-3.20
2022-12-17T10:57:36.537Z,-3.40
2022-12-17T11:00:32.910Z,-3.60
2022-12-17T11:06:04.124Z,-2.00
2022-12-17T11:08:50.514Z,-1.60
2022-12-17T11:11:36.456Z,-1.20
2022-12-17T11:14:24.276Z,-0.70
2022-12-17T11:17:14.021Z,-0.60
2022-12-17T11:20:07.253Z,-0.90
2022-12-17T11:31:31.789Z,-0.70
2022-12-17T11:34:28.060Z,1.30
2022-12-17T11:37:32.749Z,0.20
2022-12-17T11:40:36.901Z,0.50
2022-12-17T11:43:45.009Z,1.50
2022-12-17T11:46:56.764Z,1.20
2022-12-17T11:49:53.154Z,0.20
2022-12-17T11:52:41.384Z,0.00
2022-12-17T11:55:43.871Z,0.90
2022-12-17T11:58:55.412Z,0.50
2022-12-17T12:08:09.633Z,1.60
2022-12-17T12:14:14.374Z,3.40
2022-12-17T12:17:20.504Z,3.80
2022-12-17T12:20:18.915Z,3.00
2022-12-17T12:23:18.297Z,2.60
2022-12-17T12:26:27.290Z,2.90
2022-12-17T12:29:27.852Z,3.80
2022-12-17T12:32:26.802Z,3.00
2022-12-17T12:35:13.700Z,5.10
2022-12-17T12:37:59.256Z,5.00
2022-12-17T12:41:18.505Z,3.90
2022-12-17T12:44:10.673Z,4.10
2022-12-17T12:47:29.612Z,4.30
2022-12-17T12:50:33.692Z,5.50
2022-12-17T12:53:19.645Z,5.60
2022-12-17T12:56:04.781Z,6.70
2022-12-17T12:58:53.503Z,6.60
2022-12-17T13:01:50.081Z,8.60
2022-12-17T13:04:48.016Z,6.90
2022-12-17T13:07:29.291Z,7.70
2022-12-17T13:09:58.500Z,7.60
2022-12-17T13:12:47.601Z,6.90
2022-12-17T13:15:30.172Z,7.20
2022-12-17T13:18:18.856Z,7.70
2022-12-17T13:20:58.163Z,8.50
2022-12-17T13:23:28.478Z,8.80
2022-12-17T13:26:17.517Z,8.90
2022-12-17T13:29:13.302Z,9.30
2022-12-17T13:32:00.397Z,8.90
2022-12-17T13:34:53.597Z,8.80
2022-12-17T13:37:41.778Z,9.40
2022-12-17T13:40:30.103Z,9.20
2022-12-17T13:42:56.875Z,9.20
2022-12-17T13:45:25.919Z,8.50
2022-12-17T13:47:57.636Z,10.10
2022-12-17T13:50:35.194Z,9.00
2022-12-17T13:53:11.492Z,8.80
2022-12-17T13:55:38.318Z,8.40
2022-12-17T13:58:05.003Z,7.20
2022-12-17T14:00:32.497Z,6.60
2022-12-17T14:03:10.347Z,6.40
2022-12-17T14:05:43.149Z,6.60
2022-12-17T14:08:16.232Z,7.00
2022-12-17T14:11:14.303Z,7.10
2022-12-17T14:13:42.487Z,6.90
2022-12-17T14:16:09.279Z,6.80
2022-12-17T14:18:40.362Z,6.70
2022-12-17T14:21:09.254Z,6.90
2022-12-17T14:23:36.151Z,6.70
2022-12-17T14:26:03.058Z,6.30
2022-12-17T14:28:32.583Z,5.80
2022-12-17T14:31:28.175Z,5.30
2022-12-17T14:34:11.205Z,3.20
2022-12-17T14:36:43.178Z,1.70
2022-12-17T14:39:36.322Z,0.60
2022-12-17T14:42:32.545Z,-0.20
2022-12-17T14:45:02.274Z,-0.70
2022-12-17T14:47:34.785Z,-1.10
2022-12-17T14:50:29.053Z,-1.40
2022-12-17T14:52:57.881Z,-1.60
2022-12-17T14:55:55.509Z,-2.00
2022-12-17T15:00:54.224Z,-2.10
2022-12-17T15:03:31.029Z,-2.50
2022-12-17T15:06:02.214Z,-2.50
2022-12-17T15:11:01.757Z,-2.80
2022-12-17T15:13:28.497Z,-3.20
2022-12-17T15:18:22.373Z,-3.10
2022-12-17T15:20:49.120Z,-3.80
2022-12-17T15:25:47.066Z,-3.90
2022-12-17T15:28:15.239Z,-3.90
2022-12-17T15:30:42.030Z,-3.20
2022-12-17T15:33:09.871Z,-4.10
2022-12-17T15:35:37.939Z,-4.20
2022-12-17T15:38:05.754Z,-4.10
2022-12-17T15:43:12.137Z,-4.20
2022-12-17T15:45:43.618Z,-4.80
2022-12-17T15:48:12.359Z,-3.90
2022-12-17T15:50:39.106Z,-4.70
2022-12-17T15:53:06.326Z,-4.30
2022-12-17T15:55:33.072Z,-4.90
2022-12-17T16:00:27.020Z,-4.90
2022-12-17T16:02:53.942Z,-5.30
2022-12-17T16:05:22.085Z,-5.10
2022-12-17T16:07:50.271Z,-5.30
2022-12-17T16:10:17.745Z,-5.60
2022-12-17T16:12:44.436Z,-5.50
2022-12-17T16:15:12.672Z,-5.10
2022-12-17T16:17:39.407Z,-5.50
2022-12-17T16:20:07.105Z,-6.20
2022-12-17T16:22:33.839Z,-6.20
2022-12-17T16:25:00.618Z,-6.60
2022-12-17T16:27:27.320Z,-5.50
2022-12-17T16:29:53.950Z,-5.50
2022-12-17T16:32:20.671Z,-5.70
2022-12-17T16:34:47.548Z,-6.40
2022-12-17T16:37:14.263Z,-5.80
2022-12-17T16:39:40.997Z,-5.80
2022-12-17T16:42:07.776Z,-6.00
2022-12-17T16:44:34.493Z,-6.70
2022-12-17T16:47:01.228Z,-6.70
2022-12-17T16:49:27.974Z,-6.40
2022-12-17T16:51:57.728Z,-6.90
2022-12-17T16:54:26.657Z,-7.40
2022-12-17T16:56:54.035Z,-7.40
2022-12-17T16:59:22.157Z,-6.80
2022-12-17T17:04:19.007Z,-7.80
2022-12-17T17:06:48.874Z,-8.00
2022-12-17T17:11:48.275Z,-8.10
2022-12-17T17:14:18.501Z,-8.20
2022-12-17T17:24:21.359Z,-6.70
2022-12-17T17:36:58.179Z,-8.40
2022-12-17T17:41:52.498Z,-8.40
2022-12-17T17:44:19.216Z,-8.40
2022-12-17T17:46:46.032Z,-8.30
2022-12-17T17:49:12.912Z,-8.50
2022-12-17T17:54:28.699Z,-9.30
2022-12-17T17:56:55.514Z,-8.50
2022-12-17T17:59:29.153Z,-7.90
2022-12-17T18:01:59.946Z,-8.50
2022-12-17T18:04:26.811Z,-8.80
2022-12-17T18:07:23.714Z,-8.70
2022-12-17T18:09:40.172Z,-8.00
2022-12-17T18:12:26.970Z,-9.00
2022-12-17T18:17:40.571Z,-9.20
2022-12-17T18:20:09.490Z,-9.00
2022-12-17T18:25:04.362Z,-9.00
2022-12-17T18:27:31.086Z,-8.80
2022-12-17T18:29:57.750Z,-9.10
2022-12-17T18:37:18.935Z,-9.40
2022-12-17T18:39:45.647Z,-9.80
2022-12-17T18:42:30.964Z,-8.90
2022-12-17T18:44:57.673Z,-9.50
2022-12-17T18:47:25.449Z,-9.30
2022-12-17T18:49:52.301Z,-9.00
2022-12-17T18:52:18.984Z,-8.60
2022-12-17T18:54:45.730Z,-9.20
2022-12-17T18:57:13.506Z,-9.30
2022-12-17T18:59:40.991Z,-9.40
2022-12-17T19:02:50.242Z,-9.60
2022-12-17T19:05:39.493Z,-9.50
2022-12-17T19:12:21.995Z,-9.30
2022-12-17T19:15:32.549Z,-9.50
2022-12-17T19:18:00.420Z,-9.20
2022-12-17T19:21:00.891Z,-9.30
2022-12-17T19:23:52.050Z,-9.20
2022-12-17T19:26:47.036Z,-9.70
2022-12-17T19:29:31.592Z,-9.10
2022-12-17T19:31:58.520Z,-9.90
2022-12-17T19:34:25.652Z,-10.20
2022-12-17T19:36:57.621Z,-9.10
2022-12-17T19:39:49.904Z,-10.40
2022-12-17T19:42:51.167Z,-11.00
2022-12-17T19:45:17.996Z,-10.30
2022-12-17T19:47:50.072Z,-11.10
2022-12-17T19:50:26.156Z,-9.50
2022-12-17T19:53:09.865Z,-10.10
2022-12-17T19:55:41.687Z,-10.60
2022-12-17T19:58:11.219Z,-10.40
2022-12-17T20:00:43.186Z,-10.10
2022-12-17T20:03:10.399Z,-10.30
2022-12-17T20:05:37.374Z,-10.40
2022-12-17T20:08:04.591Z,-9.80
2022-12-17T20:10:33.645Z,-10.30
2022-12-17T20:13:00.548Z,-10.50
2022-12-17T20:15:27.692Z,-10.50
2022-12-17T20:17:54.527Z,-10.30
2022-12-17T20:20:21.405Z,-9.40
2022-12-17T20:22:48.266Z,-10.40
2022-12-17T20:25:15.126Z,-10.90
2022-12-17T20:27:42.915Z,-11.50
2022-12-17T20:30:10.597Z,-10.30
2022-12-17T20:32:38.375Z,-10.60
2022-12-17T20:35:05.901Z,-9.90
2022-12-17T20:37:32.747Z,-10.80
2022-12-17T20:39:59.633Z,-10.50
2022-12-17T20:42:27.529Z,-11.20
2022-12-17T20:44:54.253Z,-11.00
2022-12-17T20:47:21.635Z,-10.60
2022-12-17T20:49:48.510Z,-10.70
2022-12-17T20:52:15.292Z,-10.00
2022-12-17T20:54:42.262Z,-10.60
2022-12-17T20:57:09.216Z,-10.60
2022-12-17T20:59:36.145Z,-10.20
2022-12-17T21:02:03.241Z,-10.60
2022-12-17T21:04:30.265Z,-9.20
2022-12-17T21:06:57.107Z,-10.20
2022-12-17T21:09:25.534Z,-11.00
2022-12-17T21:11:52.747Z,-9.80
2022-12-17T21:14:19.862Z,-10.30
2022-12-17T21:16:47.080Z,-11.00
2022-12-17T21:19:16.636Z,-10.40
2022-12-17T21:21:43.971Z,-11.00
2022-12-17T21:24:11.144Z,-12.50
2022-12-17T21:29:08.624Z,-11.50
2022-12-17T21:31:50.139Z,-11.30
2022-12-17T21:34:21.702Z,-11.10
2022-12-17T21:36:49.524Z,-10.80
2022-12-17T21:39:18.176Z,-10.50
2022-12-17T21:42:08.677Z,-11.20
2022-12-17T21:44:36.157Z,-11.30
2022-12-17T21:47:03.113Z,-11.40
2022-12-17T21:49:29.949Z,-10.70
2022-12-17T21:51:59.335Z,-10.40
2022-12-17T21:54:26.180Z,-12.30
2022-12-17T21:56:52.894Z,-10.50
2022-12-17T21:59:19.778Z,-11.00
2022-12-17T22:01:46.578Z,-10.10
2022-12-17T22:04:13.600Z,-11.10
2022-12-17T22:06:46.978Z,-10.30
2022-12-17T22:09:29.033Z,-10.70
2022-12-17T22:12:22.016Z,-11.30
2022-12-17T22:14:51.005Z,-11.40
2022-12-17T22:17:17.760Z,-11.20
2022-12-17T22:19:45.286Z,-10.90
2022-12-17T22:22:12.065Z,-11.10
2022-12-17T22:24:38.825Z,-11.50
2022-12-17T22:27:08.971Z,-11.20
2022-12-17T22:29:55.566Z,-10.70
2022-12-17T22:32:40.648Z,-10.30
2022-12-17T22:37:09.534Z,-11.40
2022-12-17T22:40:03.623Z,-11.30
2022-12-17T22:44:32.404Z,-11.20
2022-12-17T22:44:41.007Z,-10.70
2022-12-17T22:46:19.381Z,-10.90
2022-12-17T22:48:47.086Z,-11.80
2022-12-17T22:51:16.483Z,-11.90
2022-12-17T22:53:54.482Z,-11.60
2022-12-17T22:56:50.630Z,-11.50
2022-12-17T22:59:10.317Z,-11.20
2022-12-17T23:01:37.161Z,-10.70
2022-12-17T23:04:04.064Z,-11.90
2022-12-17T23:06:30.954Z,-11.70
2022-12-17T23:08:59.050Z,-10.80
2022-12-17T23:11:28.593Z,-11.60
2022-12-17T23:13:56.154Z,-10.90
2022-12-17T23:16:23.858Z,-11.10
2022-12-17T23:18:51.797Z,-10.90
2022-12-17T23:21:23.920Z,-10.70
2022-12-17T23:23:51.890Z,-12.00
2022-12-17T23:26:21.828Z,-10.80
2022-12-17T23:28:48.758Z,-11.70
2022-12-17T23:31:19.017Z,-11.60
2022-12-17T23:33:46.682Z,-11.10
2022-12-17T23:36:16.853Z,-11.90
2022-12-17T23:38:44.466Z,-11.40
2022-12-17T23:41:14.892Z,-11.00
2022-12-17T23:43:41.996Z,-11.70
2022-12-17T23:46:10.353Z,-11.10
2022-12-17T23:48:44.992Z,-11.80
2022-12-17T23:51:14.325Z,-11.80
2022-12-17T23:53:42.629Z,-11.50
2022-12-17T23:56:13.926Z,-11.80
2022-12-17T23:58:43.003Z,-11.60
